Etusivu
METAR-TAF:

METAR-TAF

Lentoasemat :

Manhattan, Kansas, Yhdysvallat

Leveyspiiri: 39-08-07N, Pituuspiiri: 096-40-40W, korkeus merenpinnasta: 321 m

Tämänhetkinen sää

Tämä raportti tehtiin 59 minuuttia sitten, kello 11.52 UTC
tyyntä
Lämpötila -7°C
Kosteus 93%
Ilmanpaine 1028 hPa
Näkyvyys: 16.1 km
selkeää

METAR: KMHK 151152Z AUTO 00000KT 10SM CLR M07/M08 A3036 RMK AO2 SLP292 I1000 I6000 T10671078 11033 21067 56004

Aika: 06:51 (12:51 UTC)

Sääennuste

Tämä raportti tehtiin 1 tunti ja 30 minuuttia sitten, kello 11.21 UTC
Ennuste voimassa 15. päivästä klo 12 UTC - 16. päivään klo 12 UTC
Tuuli kn pohjoisesta
Näkyvyys: 10 km
selkeää
From 15. päivästä klo 1500 UTC
Tuuli 12 kn etelästä
Näkyvyys: 10 km
Muutamia pilviä 25000 ft:n korkeudessa
From 15. päivästä klo 2300 UTC
Tuuli 6 kn etelästä/kaakosta
Näkyvyys: 10 km
Muutamia pilviä 25000 ft:n korkeudessa

TAF: KMHK 151121Z 1512/1612 00000KT P6SM SKC FM151500 18012KT P6SM FEW250 FM152300 16006KT P6SM FEW250

Säähavainnot ja -ennusteet yli 4000 lentoasemalta (METAR- ja TAF-raportit).

Käytössä olevat sääasemat on merkitty karttaan keltaisilla ja punaisilla pisteillä.

Aseta hiiri pisteen päälle nähdäksesi sääaseman nimen.

Klikkaa sitten nähdäksesi säähavainnot ja -ennusteet.

Kartan vaihtaminen: klikkaa mustalla rastilla varustettuja vihreitä pisteitä, niin voit zoomata sisään; viivalla varustettua vihreää pistettä, niin voit zoomata ulos tai vihreitä nuolia, niin pääset viereisille kartoille.


METAR-TAF: